createdAt,value
2023-01-19T00:00:40.566Z,99016.38
2023-01-19T00:03:16.427Z,99001.84
2023-01-19T00:05:44.770Z,99019.81
2023-01-19T00:08:15.488Z,99014.72
2023-01-19T00:10:45.223Z,99021.53
2023-01-19T00:13:12.951Z,99018.97
2023-01-19T00:15:40.112Z,99028.34
2023-01-19T00:18:09.034Z,99033.41
2023-01-19T00:20:36.953Z,99037.66
2023-01-19T00:23:05.009Z,99043.63
2023-01-19T00:25:32.330Z,99048.72
2023-01-19T00:28:01.534Z,99051.22
2023-01-19T00:30:29.643Z,99052.03
2023-01-19T00:32:56.786Z,99052.03
2023-01-19T00:35:24.038Z,99058.81
2023-01-19T00:37:51.201Z,99063.13
2023-01-19T00:40:18.545Z,99058.91
2023-01-19T00:42:48.437Z,99057.16
2023-01-19T00:45:21.602Z,99060.59
2023-01-19T00:47:54.877Z,99046.97
2023-01-19T00:50:22.016Z,99058.03
2023-01-19T00:52:49.653Z,99062.28
2023-01-19T00:55:17.007Z,99063.97
2023-01-19T00:57:44.205Z,99071.63
2023-01-19T01:00:14.389Z,99077.56
2023-01-19T01:02:43.248Z,99084.38
2023-01-19T01:05:11.133Z,99087.75
2023-01-19T01:07:42.134Z,99063.00
2023-01-19T01:10:12.034Z,99092.84
2023-01-19T01:12:39.666Z,99090.28
2023-01-19T01:15:09.462Z,99097.94
2023-01-19T01:17:37.171Z,99103.91
2023-01-19T01:20:05.205Z,99107.28
2023-01-19T01:22:32.262Z,99109.81
2023-01-19T01:25:00.121Z,99102.97
2023-01-19T01:27:27.351Z,99108.94
2023-01-19T01:29:54.488Z,99103.00
2023-01-19T01:32:21.536Z,99099.56
2023-01-19T01:34:48.623Z,99118.31
2023-01-19T01:37:15.685Z,99123.47
2023-01-19T01:39:42.763Z,99122.63
2023-01-19T01:42:17.996Z,99125.16
2023-01-19T01:44:54.209Z,99126.84
2023-01-19T01:47:55.694Z,99128.59
2023-01-19T01:50:25.320Z,99130.28
2023-01-19T01:53:06.804Z,99128.59
2023-01-19T01:55:46.975Z,99130.28
2023-01-19T01:58:16.539Z,99141.31
2023-01-19T02:01:02.340Z,99132.78
2023-01-19T02:03:29.814Z,99129.41
2023-01-19T02:06:01.883Z,99131.94
2023-01-19T02:08:58.422Z,99127.69
2023-01-19T02:11:44.622Z,99123.50
2023-01-19T02:14:11.721Z,99128.63
2023-01-19T02:16:39.098Z,99131.19
2023-01-19T02:19:09.170Z,99133.75
2023-01-19T02:21:54.814Z,99127.81
2023-01-19T02:24:22.771Z,99128.59
2023-01-19T02:26:51.530Z,99141.38
2023-01-19T02:29:21.630Z,99140.53
2023-01-19T02:31:48.806Z,99133.75
2023-01-19T02:34:18.269Z,99138.84
2023-01-19T02:37:06.924Z,99146.47
2023-01-19T02:39:51.868Z,99152.44
2023-01-19T02:42:24.595Z,99143.91
2023-01-19T02:44:54.667Z,99163.50
2023-01-19T02:47:21.864Z,99156.72
2023-01-19T02:49:59.403Z,99154.13
2023-01-19T02:52:28.349Z,99158.41
2023-01-19T02:54:58.019Z,99153.31
2023-01-19T02:57:31.572Z,99150.78
2023-01-19T03:00:34.055Z,99137.16
2023-01-19T03:03:30.839Z,99141.44
2023-01-19T03:06:15.752Z,99147.38
2023-01-19T03:08:46.832Z,99152.47
2023-01-19T03:11:14.942Z,99154.16
2023-01-19T03:14:09.109Z,99156.72
2023-01-19T03:16:39.336Z,99154.16
2023-01-19T03:19:10.245Z,99155.81
2023-01-19T03:21:40.215Z,99156.72
2023-01-19T03:24:09.572Z,99160.06
2023-01-19T03:26:44.227Z,99161.75
2023-01-19T03:29:14.314Z,99159.22
2023-01-19T03:31:45.166Z,99165.16
2023-01-19T03:34:15.348Z,99157.44
2023-01-19T03:36:52.365Z,99169.38
2023-01-19T03:39:24.575Z,99167.63
2023-01-19T03:42:00.217Z,99177.88
2023-01-19T03:44:29.431Z,99181.28
2023-01-19T03:46:59.331Z,99183.84
2023-01-19T03:49:27.172Z,99186.41
2023-01-19T03:51:59.101Z,99180.47
2023-01-19T03:54:27.316Z,99188.97
2023-01-19T03:56:54.686Z,99189.78
2023-01-19T03:59:22.123Z,99180.44
2023-01-19T04:01:49.623Z,99191.56
2023-01-19T04:04:16.851Z,99189.84
2023-01-19T04:06:44.489Z,99183.91
2023-01-19T04:09:11.819Z,99188.16
2023-01-19T04:11:38.941Z,99191.59
2023-01-19T04:14:06.123Z,99189.84
2023-01-19T04:16:33.172Z,99182.22
2023-01-19T04:19:00.241Z,99188.19
2023-01-19T04:21:27.263Z,99168.56
2023-01-19T04:23:54.301Z,99173.75
2023-01-19T04:26:21.412Z,99184.72
2023-01-19T04:28:48.648Z,99183.91
2023-01-19T04:31:15.806Z,99182.22
2023-01-19T04:33:42.876Z,99183.88
2023-01-19T04:36:10.002Z,99188.94
2023-01-19T04:38:37.211Z,99180.44
2023-01-19T04:41:04.458Z,99194.88
2023-01-19T04:43:31.565Z,99198.28
2023-01-19T04:45:59.312Z,99201.66
2023-01-19T04:48:26.477Z,99194.84
2023-01-19T04:50:54.100Z,99204.19
2023-01-19T04:53:21.187Z,99208.47
2023-01-19T04:55:48.364Z,99200.00
2023-01-19T04:58:15.969Z,99203.41
2023-01-19T05:00:43.850Z,99200.00
2023-01-19T05:03:11.046Z,99196.56
2023-01-19T05:05:38.467Z,99209.38
2023-01-19T05:08:05.738Z,99205.13
2023-01-19T05:10:32.962Z,99213.63
2023-01-19T05:13:00.255Z,99210.22
2023-01-19T05:15:27.552Z,99176.09
2023-01-19T05:17:54.727Z,99210.22
2023-01-19T05:20:21.759Z,99213.59
2023-01-19T05:22:50.843Z,99218.66
2023-01-19T05:25:18.647Z,99216.94
2023-01-19T05:27:46.160Z,99215.28
2023-01-19T05:30:14.335Z,99227.16
2023-01-19T05:32:41.494Z,99232.25
2023-01-19T05:35:09.028Z,99236.53
2023-01-19T05:37:36.291Z,99228.91
2023-01-19T05:40:03.565Z,99228.94
2023-01-19T05:42:32.672Z,99225.56
2023-01-19T05:45:00.455Z,99198.13
2023-01-19T05:47:30.162Z,99223.81
2023-01-19T05:49:57.690Z,99225.53
2023-01-19T05:52:27.798Z,99228.09
2023-01-19T05:54:55.471Z,99228.94
2023-01-19T05:57:22.743Z,99233.16
2023-01-19T05:59:50.268Z,99233.16
2023-01-19T06:02:17.443Z,99228.84
2023-01-19T06:04:45.058Z,99245.88
2023-01-19T06:07:12.126Z,99264.63
2023-01-19T06:09:39.249Z,99266.28
2023-01-19T06:12:06.743Z,99277.34
2023-01-19T06:14:33.825Z,99275.59
2023-01-19T06:17:00.910Z,99292.56
2023-01-19T06:19:28.042Z,99295.94
2023-01-19T06:21:55.080Z,99300.19
2023-01-19T06:24:23.303Z,99309.50
2023-01-19T06:26:50.461Z,99306.88
2023-01-19T06:29:18.636Z,99317.03
2023-01-19T06:31:45.846Z,99333.19
2023-01-19T06:34:13.046Z,99311.72
2023-01-19T06:36:40.284Z,99318.66
2023-01-19T06:39:07.395Z,99337.47
2023-01-19T06:41:34.784Z,99342.56
2023-01-19T06:44:02.370Z,99334.00
2023-01-19T06:46:30.044Z,99339.88
2023-01-19T06:48:57.222Z,99342.44
2023-01-19T06:51:24.651Z,99342.53
2023-01-19T06:53:51.753Z,99354.41
2023-01-19T06:56:19.033Z,99346.78
2023-01-19T06:58:50.687Z,99348.47
2023-01-19T07:01:18.064Z,99349.25
2023-01-19T07:03:46.867Z,99360.31
2023-01-19T07:06:14.122Z,99369.66
2023-01-19T07:08:41.267Z,99369.69
2023-01-19T07:11:24.922Z,99366.38
2023-01-19T07:13:57.847Z,99371.50
2023-01-19T07:16:25.313Z,99367.13
2023-01-19T07:18:52.536Z,99378.31
2023-01-19T07:21:19.663Z,99383.38
2023-01-19T07:23:52.219Z,99393.56
2023-01-19T07:26:21.641Z,99401.13
2023-01-19T07:28:49.352Z,99396.84
2023-01-19T07:31:16.936Z,99394.28
2023-01-19T07:33:44.453Z,99403.63
2023-01-19T07:36:12.312Z,99404.44
2023-01-19T07:38:39.948Z,99398.47
2023-01-19T07:41:09.440Z,99413.75
2023-01-19T07:43:36.603Z,99418.84
2023-01-19T07:46:05.924Z,99417.16
2023-01-19T07:48:33.137Z,99421.44
2023-01-19T07:51:01.745Z,99425.75
2023-01-19T07:53:28.885Z,99415.50
2023-01-19T07:55:57.261Z,99424.09
2023-01-19T07:58:25.217Z,99419.00
2023-01-19T08:00:52.914Z,99425.81
2023-01-19T08:03:20.450Z,99425.81
2023-01-19T08:05:51.948Z,99425.00
2023-01-19T08:08:20.089Z,99414.78
2023-01-19T08:10:50.639Z,99422.50
2023-01-19T08:13:18.753Z,99423.38
2023-01-19T08:15:49.725Z,99417.44
2023-01-19T08:18:17.061Z,99432.81
2023-01-19T08:20:44.324Z,99431.16
2023-01-19T08:23:11.394Z,99420.09
2023-01-19T08:25:44.553Z,99435.41
2023-01-19T08:28:14.427Z,99391.72
2023-01-19T08:30:44.108Z,99427.69
2023-01-19T08:33:12.658Z,99427.72
2023-01-19T08:35:43.950Z,99431.06
2023-01-19T08:38:11.281Z,99427.69
2023-01-19T08:40:40.470Z,99425.16
2023-01-19T08:43:10.318Z,99429.53
2023-01-19T08:45:41.705Z,99422.69
2023-01-19T08:48:10.131Z,99423.56
2023-01-19T08:50:37.257Z,99422.81
2023-01-19T08:53:07.240Z,99426.28
2023-01-19T08:55:36.520Z,99433.94
2023-01-19T08:58:05.151Z,99433.06
2023-01-19T09:00:38.150Z,99432.22
2023-01-19T09:03:07.965Z,99436.47
2023-01-19T09:05:38.935Z,99427.94
2023-01-19T09:08:09.500Z,99433.03
2023-01-19T09:10:38.267Z,99433.94
2023-01-19T09:13:08.607Z,99438.28
2023-01-19T09:15:38.071Z,99443.34
2023-01-19T09:18:07.554Z,99445.00
2023-01-19T09:20:36.359Z,99453.50
2023-01-19T09:23:03.727Z,99445.00
2023-01-19T09:25:31.467Z,99456.94
2023-01-19T09:28:02.798Z,99461.19
2023-01-19T09:30:30.196Z,99450.94
2023-01-19T09:33:02.793Z,99450.91
2023-01-19T09:35:31.793Z,99457.75
2023-01-19T09:37:59.538Z,99455.19
2023-01-19T09:40:28.184Z,99462.03
2023-01-19T09:43:32.123Z,99456.16
2023-01-19T09:46:01.753Z,99449.44
2023-01-19T09:48:35.082Z,99445.25
2023-01-19T09:51:07.882Z,99438.47
2023-01-19T09:53:50.782Z,99447.03
2023-01-19T09:56:20.409Z,99443.69
2023-01-19T09:58:49.908Z,99442.03
2023-01-19T10:01:38.209Z,99445.50
2023-01-19T10:04:17.188Z,99439.59
2023-01-19T10:06:44.439Z,99440.44
2023-01-19T10:09:32.095Z,99442.13
2023-01-19T10:12:35.989Z,99440.38
2023-01-19T10:15:40.629Z,99447.28
2023-01-19T10:18:31.645Z,99440.44
2023-01-19T10:21:13.126Z,99437.06
2023-01-19T10:23:58.444Z,99441.31
2023-01-19T10:26:39.762Z,99437.03
2023-01-19T10:29:34.648Z,99437.06
2023-01-19T10:32:17.397Z,99437.06
2023-01-19T10:34:44.597Z,99430.22
2023-01-19T10:37:14.687Z,99433.63
2023-01-19T10:39:43.012Z,99442.13
2023-01-19T10:42:15.484Z,99431.84
2023-01-19T10:44:43.393Z,99425.00
2023-01-19T10:47:19.495Z,99436.06
2023-01-19T10:49:48.485Z,99441.13
2023-01-19T10:52:21.244Z,99438.53
2023-01-19T10:54:48.855Z,99443.69
2023-01-19T10:57:28.418Z,99440.31
2023-01-19T10:59:55.798Z,99457.31
2023-01-19T11:02:33.935Z,99459.03
2023-01-19T11:05:22.361Z,99462.41
2023-01-19T11:07:49.818Z,99453.94
2023-01-19T11:10:17.643Z,99459.94
2023-01-19T11:13:04.581Z,99448.09
2023-01-19T11:15:33.306Z,99450.75
2023-01-19T11:18:01.967Z,99442.22
2023-01-19T11:20:47.344Z,99437.19
2023-01-19T11:23:14.442Z,99438.94
2023-01-19T11:25:49.173Z,99430.44
2023-01-19T11:28:24.969Z,99440.69
2023-01-19T11:31:01.599Z,99437.25
2023-01-19T11:33:37.770Z,99440.66
2023-01-19T11:36:07.847Z,99435.53
2023-01-19T11:38:43.779Z,99448.31
2023-01-19T11:41:31.087Z,99440.63
2023-01-19T11:44:03.089Z,99439.78
2023-01-19T11:46:34.680Z,99433.75
2023-01-19T11:49:43.238Z,99450.81
2023-01-19T11:52:45.131Z,99446.56
2023-01-19T11:55:15.219Z,99455.91
2023-01-19T11:57:52.398Z,99456.75
2023-01-19T12:00:44.764Z,99452.50
2023-01-19T12:03:11.878Z,99455.09
2023-01-19T12:05:43.796Z,99458.47
2023-01-19T12:08:27.164Z,99450.81
2023-01-19T12:10:57.925Z,99449.97
2023-01-19T12:13:27.459Z,99456.78
2023-01-19T12:16:04.697Z,99450.81
2023-01-19T12:18:41.578Z,99444.03
2023-01-19T12:21:08.853Z,99447.41
2023-01-19T12:24:04.107Z,99442.28
2023-01-19T12:26:53.621Z,99440.59
2023-01-19T12:29:22.763Z,99438.91
2023-01-19T12:32:14.787Z,99426.19
2023-01-19T12:34:49.590Z,99426.19
2023-01-19T12:37:41.715Z,99422.84
2023-01-19T12:40:31.465Z,99418.63
2023-01-19T12:43:01.877Z,99422.06
2023-01-19T12:45:34.389Z,99422.06
2023-01-19T12:48:02.905Z,99422.06
2023-01-19T12:50:37.935Z,99418.72
2023-01-19T12:53:16.809Z,99417.00
2023-01-19T12:55:46.968Z,99430.63
2023-01-19T12:58:13.940Z,99424.66
2023-01-19T13:00:43.272Z,99423.84
2023-01-19T13:03:39.767Z,99432.34
2023-01-19T13:06:09.498Z,99427.22
2023-01-19T13:08:59.508Z,99427.22
2023-01-19T13:11:30.311Z,99420.38
2023-01-19T13:13:59.796Z,99430.56
2023-01-19T13:16:27.751Z,99432.22
2023-01-19T13:19:10.202Z,99432.22
2023-01-19T13:21:45.948Z,99430.56
2023-01-19T13:24:25.104Z,99432.25
2023-01-19T13:26:52.100Z,99433.97
2023-01-19T13:29:34.092Z,99433.97
2023-01-19T13:32:04.271Z,99439.03
2023-01-19T13:34:35.663Z,99442.41
2023-01-19T13:37:04.700Z,99445.81
2023-01-19T13:39:46.671Z,99438.94
2023-01-19T13:42:21.366Z,99445.72
2023-01-19T13:44:52.697Z,99435.38
2023-01-19T13:47:24.098Z,99442.16
2023-01-19T13:49:58.165Z,99431.00
2023-01-19T13:52:29.982Z,99438.69
2023-01-19T13:55:01.770Z,99437.75
2023-01-19T13:57:33.951Z,99442.91
2023-01-19T14:00:28.035Z,99426.53
2023-01-19T14:03:23.957Z,99443.66
2023-01-19T14:05:53.189Z,99443.56
2023-01-19T14:08:21.565Z,99453.78
2023-01-19T14:10:54.379Z,99458.03
2023-01-19T14:13:26.488Z,99463.09
2023-01-19T14:15:56.690Z,99462.25
2023-01-19T14:18:25.857Z,99467.25
2023-01-19T14:21:08.022Z,99474.09
2023-01-19T14:23:51.463Z,99474.97
2023-01-19T14:26:40.176Z,99480.09
2023-01-19T14:29:34.995Z,99480.91
2023-01-19T14:32:02.016Z,99485.16
2023-01-19T14:34:30.021Z,99491.09
2023-01-19T14:36:57.330Z,99497.06
2023-01-19T14:39:27.304Z,99497.88
2023-01-19T14:41:57.677Z,99499.59
2023-01-19T14:44:24.752Z,99502.16
2023-01-19T14:46:51.970Z,99499.59
2023-01-19T14:49:41.841Z,99501.25
2023-01-19T14:52:23.822Z,99495.31
2023-01-19T14:54:51.658Z,99496.16
2023-01-19T14:57:18.756Z,99497.81
2023-01-19T14:59:49.748Z,99496.97
2023-01-19T15:02:19.377Z,99502.94
2023-01-19T15:04:48.275Z,99503.81
2023-01-19T15:07:19.570Z,99502.94
2023-01-19T15:09:47.612Z,99504.66
2023-01-19T15:12:17.527Z,99502.88
2023-01-19T15:14:46.018Z,99496.09
2023-01-19T15:17:18.329Z,99503.75
2023-01-19T15:19:45.452Z,99502.84
2023-01-19T15:22:13.689Z,99507.94
2023-01-19T15:24:41.197Z,99509.63
2023-01-19T15:27:12.293Z,99509.63
2023-01-19T15:29:42.686Z,99515.56
2023-01-19T15:32:14.396Z,99512.16
2023-01-19T15:34:42.298Z,99519.72
2023-01-19T15:37:09.715Z,99505.25
2023-01-19T15:39:36.847Z,99522.28
2023-01-19T15:42:04.127Z,99515.44
2023-01-19T15:44:31.493Z,99523.13
2023-01-19T15:46:58.947Z,99503.38
2023-01-19T15:49:26.476Z,99521.34
2023-01-19T15:51:53.727Z,99523.03
2023-01-19T15:54:20.805Z,99528.09
2023-01-19T15:56:48.028Z,99531.50
2023-01-19T15:59:15.151Z,99510.97
2023-01-19T16:01:42.403Z,99526.31
2023-01-19T16:04:11.280Z,99526.19
2023-01-19T16:06:38.452Z,99542.31
2023-01-19T16:09:05.950Z,99541.44
2023-01-19T16:11:35.222Z,99538.94
2023-01-19T16:14:02.726Z,99539.78
2023-01-19T16:16:30.171Z,99541.47
2023-01-19T16:18:57.629Z,99546.69
2023-01-19T16:21:25.398Z,99562.00
2023-01-19T16:23:53.312Z,99553.50
2023-01-19T16:26:25.544Z,99556.00
2023-01-19T16:28:53.667Z,99560.25
2023-01-19T16:31:20.953Z,99560.25
2023-01-19T16:33:48.041Z,99562.00
2023-01-19T16:36:22.759Z,99563.66
2023-01-19T16:38:50.368Z,99564.53
2023-01-19T16:41:18.056Z,99567.03
2023-01-19T16:43:50.080Z,99567.81
2023-01-19T16:46:20.204Z,99560.13
2023-01-19T16:48:47.359Z,99558.28
2023-01-19T16:51:14.512Z,99551.44
2023-01-19T16:53:41.756Z,99561.69
2023-01-19T16:56:14.692Z,99562.50
2023-01-19T16:58:42.726Z,99563.28
2023-01-19T17:01:16.372Z,99570.13
2023-01-19T17:03:44.531Z,99571.81
2023-01-19T17:06:13.914Z,99571.78
2023-01-19T17:08:41.555Z,99575.19
2023-01-19T17:11:20.665Z,99576.84
2023-01-19T17:14:02.890Z,99581.06
2023-01-19T17:16:32.392Z,99587.81
2023-01-19T17:19:01.624Z,99587.88
2023-01-19T17:21:29.535Z,99591.22
2023-01-19T17:23:57.730Z,99583.53
2023-01-19T17:26:28.383Z,99592.06
2023-01-19T17:29:02.751Z,99599.66
2023-01-19T17:31:30.750Z,99603.91
2023-01-19T17:33:58.592Z,99607.31
2023-01-19T17:36:27.938Z,99620.09
2023-01-19T17:38:57.706Z,99623.38
2023-01-19T17:41:26.418Z,99625.03
2023-01-19T17:43:55.005Z,99622.38
2023-01-19T17:46:24.874Z,99618.19
2023-01-19T17:48:56.455Z,99619.84
2023-01-19T17:51:24.007Z,99618.94
2023-01-19T17:53:52.684Z,99620.66
2023-01-19T17:56:23.086Z,99627.41
2023-01-19T17:58:50.411Z,99629.06
2023-01-19T18:01:23.415Z,99637.47
2023-01-19T18:03:50.905Z,99615.19
2023-01-19T18:06:17.994Z,99632.25
2023-01-19T18:08:48.674Z,99621.19
2023-01-19T18:11:18.255Z,99627.16
2023-01-19T18:13:46.871Z,99629.72
2023-01-19T18:16:20.842Z,99630.56
2023-01-19T18:18:49.955Z,99616.88
2023-01-19T18:21:17.874Z,99638.31
2023-01-19T18:23:46.044Z,99643.38
2023-01-19T18:26:16.721Z,99638.09
2023-01-19T18:28:43.779Z,99638.03
2023-01-19T18:31:13.285Z,99640.59
2023-01-19T18:33:41.236Z,99637.09
2023-01-19T18:36:09.757Z,99638.50
2023-01-19T18:38:36.946Z,99622.19
2023-01-19T18:41:06.709Z,99641.78
2023-01-19T18:43:34.206Z,99640.88
2023-01-19T18:46:01.436Z,99639.97
2023-01-19T18:48:28.693Z,99640.03
2023-01-19T18:50:56.163Z,99640.84
2023-01-19T18:53:23.983Z,99637.44
2023-01-19T18:55:52.312Z,99636.47
2023-01-19T18:58:20.402Z,99629.75
2023-01-19T19:00:48.150Z,99625.44
2023-01-19T19:03:15.317Z,99631.38
2023-01-19T19:05:42.649Z,99631.31
2023-01-19T19:08:10.090Z,99638.16
2023-01-19T19:10:37.262Z,99646.75
2023-01-19T19:13:04.441Z,99646.81
2023-01-19T19:15:33.407Z,99631.47
2023-01-19T19:18:00.731Z,99638.28
2023-01-19T19:20:27.905Z,99637.38
2023-01-19T19:22:56.170Z,99636.47
2023-01-19T19:25:23.565Z,99629.63
2023-01-19T19:27:51.934Z,99633.00
2023-01-19T19:30:20.097Z,99638.09
2023-01-19T19:32:54.615Z,99632.91
2023-01-19T19:35:22.480Z,99644.81
2023-01-19T19:37:49.878Z,99648.28
2023-01-19T19:40:17.326Z,99643.19
2023-01-19T19:42:44.328Z,99639.81
2023-01-19T19:45:12.179Z,99646.66
2023-01-19T19:47:39.225Z,99644.88
2023-01-19T19:50:06.702Z,99653.34
2023-01-19T19:52:39.632Z,99644.78
2023-01-19T19:55:08.780Z,99639.59
2023-01-19T19:57:36.295Z,99649.75
2023-01-19T20:00:05.331Z,99657.38
2023-01-19T20:02:37.040Z,99650.47
2023-01-19T20:05:05.277Z,99646.06
2023-01-19T20:07:33.121Z,99658.78
2023-01-19T20:10:00.312Z,99661.25
2023-01-19T20:12:27.864Z,99664.56
2023-01-19T20:14:54.977Z,99666.22
2023-01-19T20:17:23.416Z,99659.31
2023-01-19T20:19:50.611Z,99665.97
2023-01-19T20:22:17.895Z,99660.97
2023-01-19T20:24:45.461Z,99657.47
2023-01-19T20:27:12.590Z,99665.84
2023-01-19T20:29:39.956Z,99672.66
2023-01-19T20:32:08.155Z,99667.47
2023-01-19T20:34:35.887Z,99673.34
2023-01-19T20:37:04.881Z,99674.16
2023-01-19T20:39:33.698Z,99688.44
2023-01-19T20:42:01.741Z,99685.91
2023-01-19T20:44:29.058Z,99689.22
2023-01-19T20:46:56.876Z,99690.91
2023-01-19T20:49:24.247Z,99688.31
2023-01-19T20:52:06.586Z,99694.16
2023-01-19T20:54:34.245Z,99668.38
2023-01-19T20:57:01.406Z,99688.25
2023-01-19T20:59:28.583Z,99687.28
2023-01-19T21:01:55.912Z,99688.16
2023-01-19T21:04:23.521Z,99692.38
2023-01-19T21:06:50.652Z,99690.66
2023-01-19T21:09:18.983Z,99699.97
2023-01-19T21:11:46.045Z,99700.88
2023-01-19T21:14:13.217Z,99700.88
2023-01-19T21:16:42.701Z,99697.38
2023-01-19T21:19:09.818Z,99693.97
2023-01-19T21:21:37.020Z,99703.34
2023-01-19T21:24:05.039Z,99710.91
2023-01-19T21:26:33.752Z,99700.66
2023-01-19T21:29:02.616Z,99710.91
2023-01-19T21:31:30.517Z,99704.00
2023-01-19T21:33:58.347Z,99710.06
2023-01-19T21:36:26.076Z,99713.53
2023-01-19T21:38:55.779Z,99717.78
2023-01-19T21:41:22.890Z,99725.38
2023-01-19T21:43:50.011Z,99733.69
2023-01-19T21:46:20.061Z,99743.03
2023-01-19T21:48:47.741Z,99741.13
2023-01-19T21:51:15.635Z,99754.75
2023-01-19T21:53:42.773Z,99745.34
2023-01-19T21:56:11.161Z,99757.22
2023-01-19T21:58:38.496Z,99749.50
2023-01-19T22:01:11.086Z,99755.44
2023-01-19T22:03:38.414Z,99757.88
2023-01-19T22:06:07.234Z,99754.44
2023-01-19T22:08:35.150Z,99752.91
2023-01-19T22:11:07.236Z,99754.53
2023-01-19T22:13:35.676Z,99756.06
2023-01-19T22:16:04.673Z,99749.19
2023-01-19T22:18:31.763Z,99751.59
2023-01-19T22:21:11.644Z,99751.56
2023-01-19T22:23:39.368Z,99755.63
2023-01-19T22:26:07.758Z,99757.31
2023-01-19T22:28:35.794Z,99760.56
2023-01-19T22:31:12.399Z,99762.03
2023-01-19T22:33:40.049Z,99764.41
2023-01-19T22:36:13.630Z,99780.69
2023-01-19T22:38:41.634Z,99768.84
2023-01-19T22:41:42.280Z,99784.16
2023-01-19T22:44:13.247Z,99785.94
2023-01-19T22:46:40.457Z,99787.69
2023-01-19T22:49:08.393Z,99780.88
2023-01-19T22:51:35.999Z,99784.31
2023-01-19T22:54:03.499Z,99782.69
2023-01-19T22:56:33.018Z,99782.78
2023-01-19T22:59:01.011Z,99786.22
2023-01-19T23:01:30.317Z,99794.72
2023-01-19T23:03:57.804Z,99790.47
2023-01-19T23:06:30.100Z,99798.19
2023-01-19T23:09:00.218Z,99798.19
2023-01-19T23:11:34.272Z,99794.81
2023-01-19T23:14:03.383Z,99794.72
2023-01-19T23:16:30.523Z,99794.66
2023-01-19T23:18:58.715Z,99809.97
2023-01-19T23:21:28.927Z,99815.03
2023-01-19T23:23:59.038Z,99816.69
2023-01-19T23:26:26.648Z,99814.97
2023-01-19T23:28:59.315Z,99811.72
2023-01-19T23:31:27.764Z,99810.03
2023-01-19T23:33:57.503Z,99804.97
2023-01-19T23:36:27.528Z,99803.34
2023-01-19T23:39:04.435Z,99811.88
2023-01-19T23:41:34.693Z,99794.81
2023-01-19T23:44:02.034Z,99816.19
2023-01-19T23:46:30.235Z,99818.75
2023-01-19T23:48:57.463Z,99815.25
2023-01-19T23:51:27.320Z,99817.78
2023-01-19T23:53:54.921Z,99826.19
2023-01-19T23:56:23.164Z,99797.72
2023-01-19T23:58:57.164Z,99828.66
